Time,TemperatureF,DewpointF,PressureIn,WindDirection,WindDirectionDegrees,WindSpeedMPH,WindSpeedGustMPH,Humidity,HourlyPrecipIn,Conditions,Clouds,dailyrainin,SoftwareType,DateUTC
2013-02-06 00:00:00,28.9,26.6,29.99,WNW,292,6.0,12.0,91,0.00,,---,0.00,VWS V14.01,2013-02-06 05:00:00,
2013-02-06 00:30:00,28.9,26.1,30.01,WNW,292,6.0,10.0,89,0.00,,---,0.00,VWS V14.01,2013-02-06 05:30:00,
2013-02-06 01:00:00,28.8,25.4,30.02,WNW,292,6.0,9.0,87,0.00,,---,0.00,VWS V14.01,2013-02-06 06:00:00,
2013-02-06 01:30:00,28.9,24.1,30.03,NW,315,6.0,11.0,82,0.00,,---,0.00,VWS V14.01,2013-02-06 06:30:00,
2013-02-06 02:00:00,28.8,24.0,30.04,WNW,292,4.0,8.0,82,0.00,,---,0.00,VWS V14.01,2013-02-06 07:00:00,
2013-02-06 02:30:00,28.4,24.2,30.07,WNW,292,4.0,7.0,84,0.00,,---,0.00,VWS V14.01,2013-02-06 07:30:00,
2013-02-06 03:00:00,28.3,24.1,30.08,West,270,4.0,9.0,84,0.00,,---,0.00,VWS V14.01,2013-02-06 08:00:00,
2013-02-06 03:30:00,28.5,23.7,30.09,WNW,292,5.0,10.0,82,0.00,,---,0.00,VWS V14.01,2013-02-06 08:30:00,
2013-02-06 04:00:00,27.9,23.7,30.09,NNW,338,5.0,9.0,84,0.00,,---,0.00,VWS V14.01,2013-02-06 09:00:00,
2013-02-06 04:30:00,27.2,22.7,30.10,North,0,5.0,10.0,83,0.00,,---,0.00,VWS V14.01,2013-02-06 09:30:00,
2013-02-06 05:00:00,26.5,22.6,30.11,North,0,3.0,6.0,85,0.00,,---,0.00,VWS V14.01,2013-02-06 10:00:00,
2013-02-06 05:30:00,25.1,21.5,30.12,NE,45,0.0,2.0,86,0.00,,---,0.00,VWS V14.01,2013-02-06 10:30:00,
2013-02-06 06:00:00,24.2,20.9,30.15,NE,45,0.0,2.0,87,0.00,,---,0.00,VWS V14.01,2013-02-06 11:00:00,
2013-02-06 06:30:00,23.8,21.3,30.16,NE,45,0.0,2.0,90,0.00,,---,0.00,VWS V14.01,2013-02-06 11:30:00,
2013-02-06 07:00:00,24.1,21.6,30.18,NE,45,0.0,2.0,90,0.00,,---,0.00,VWS V14.01,2013-02-06 12:00:00,
2013-02-06 07:30:00,24.4,21.9,30.19,NE,45,0.0,2.0,90,0.00,,---,0.00,VWS V14.01,2013-02-06 12:30:00,
2013-02-06 08:00:00,24.6,21.8,30.20,NE,45,0.0,2.0,89,0.00,,---,0.00,VWS V14.01,2013-02-06 13:00:00,
2013-02-06 08:30:00,24.4,21.6,30.20,ENE,68,0.0,2.0,89,0.00,,---,0.00,VWS V14.01,2013-02-06 13:30:00,
2013-02-06 09:00:00,24.4,21.1,30.20,ENE,68,0.0,2.0,87,0.00,,---,0.00,VWS V14.01,2013-02-06 14:00:00,
2013-02-06 09:30:00,25.7,21.5,30.22,ENE,68,0.0,2.0,84,0.00,,---,0.00,VWS V14.01,2013-02-06 14:30:00,
2013-02-06 10:00:00,25.9,21.7,30.21,ENE,68,0.0,2.0,84,0.00,,---,0.00,VWS V14.01,2013-02-06 15:00:00,
2013-02-06 10:30:00,27.6,22.8,30.22,ENE,68,1.0,2.0,82,0.01,,---,0.01,VWS V14.01,2013-02-06 15:30:00,
2013-02-06 11:00:00,29.8,22.2,30.23,ENE,68,1.0,3.0,73,0.01,,---,0.01,VWS V14.01,2013-02-06 16:00:00,
2013-02-06 11:30:00,30.6,21.0,30.24,East,90,2.0,6.0,67,0.02,,---,0.02,VWS V14.01,2013-02-06 16:30:00,
2013-02-06 12:00:00,31.1,21.1,30.24,South,180,4.0,10.0,66,0.01,,---,0.02,VWS V14.01,2013-02-06 17:00:00,
2013-02-06 12:30:00,31.5,21.1,30.24,South,180,4.0,9.0,65,0.02,,---,0.03,VWS V14.01,2013-02-06 17:30:00,
2013-02-06 13:00:00,32.5,21.3,30.22,SSW,202,2.0,7.0,63,0.02,,---,0.04,VWS V14.01,2013-02-06 18:00:00,
2013-02-06 13:30:00,32.2,21.8,30.21,South,180,2.0,5.0,65,0.02,,---,0.04,VWS V14.01,2013-02-06 18:30:00,
2013-02-06 14:00:00,33.8,21.8,30.21,ENE,68,2.0,6.0,61,0.02,,---,0.05,VWS V14.01,2013-02-06 19:00:00,
2013-02-06 14:30:00,34.0,22.4,30.21,South,180,4.0,9.0,62,0.02,,---,0.06,VWS V14.01,2013-02-06 19:30:00,
2013-02-06 15:00:00,34.0,23.1,30.21,South,180,4.0,12.0,64,0.02,,---,0.06,VWS V14.01,2013-02-06 20:00:00,
2013-02-06 15:30:00,34.2,24.0,30.21,South,180,3.0,9.0,66,0.01,,---,0.06,VWS V14.01,2013-02-06 20:30:00,
2013-02-06 16:00:00,33.8,24.4,30.22,South,180,2.0,7.0,68,0.01,,---,0.07,VWS V14.01,2013-02-06 21:00:00,
2013-02-06 16:30:00,33.2,23.8,30.22,SSE,158,2.0,9.0,68,0.01,,---,0.07,VWS V14.01,2013-02-06 21:30:00,
2013-02-06 17:00:00,33.0,24.3,30.21,South,180,3.0,9.0,70,0.01,,---,0.07,VWS V14.01,2013-02-06 22:00:00,
2013-02-06 17:30:00,31.5,23.9,30.20,SSE,158,1.0,4.0,73,0.00,,---,0.07,VWS V14.01,2013-02-06 22:30:00,
2013-02-06 18:00:00,28.9,22.6,30.20,ESE,112,0.0,5.0,77,0.00,,---,0.07,VWS V14.01,2013-02-06 23:00:00,
2013-02-06 18:30:00,27.2,21.3,30.21,South,180,0.0,2.0,78,0.00,,---,0.07,VWS V14.01,2013-02-06 23:30:00,
2013-02-06 19:00:00,28.0,22.9,30.21,South,180,0.0,3.0,81,0.00,,---,0.07,VWS V14.01,2013-02-07 00:00:00,
2013-02-06 19:30:00,28.6,23.2,30.21,ESE,112,1.0,4.0,80,0.00,,---,0.07,VWS V14.01,2013-02-07 00:30:00,
2013-02-06 20:00:00,28.4,23.0,30.20,SSE,158,0.0,3.0,80,0.00,,---,0.07,VWS V14.01,2013-02-07 01:00:00,
2013-02-06 20:30:00,28.1,22.4,30.20,East,90,1.0,6.0,79,0.00,,---,0.07,VWS V14.01,2013-02-07 01:30:00,
2013-02-06 21:00:00,27.8,21.5,30.19,ESE,112,1.0,5.0,77,0.00,,---,0.07,VWS V14.01,2013-02-07 02:00:00,
2013-02-06 21:30:00,27.8,21.9,30.18,ESE,112,1.0,7.0,78,0.00,,---,0.07,VWS V14.01,2013-02-07 02:30:00,
2013-02-06 22:00:00,27.6,22.0,30.16,SE,135,1.0,8.0,79,0.00,,---,0.07,VWS V14.01,2013-02-07 03:00:00,
2013-02-06 22:30:00,27.9,22.2,30.18,SSE,158,1.0,6.0,79,0.00,,---,0.07,VWS V14.01,2013-02-07 03:30:00,
2013-02-06 23:00:00,27.6,22.2,30.17,SSE,158,1.0,4.0,80,0.00,,---,0.07,VWS V14.01,2013-02-07 04:00:00,
2013-02-06 23:30:00,27.6,22.5,30.18,SE,135,0.0,3.0,81,0.00,,---,0.07,VWS V14.01,2013-02-07 04:30:00,